Time;durP1;ratioP1;P1;durP2;ratioP2;P2;SDS_P1;SDS_P2;PMS_P1;PMS_P2;Temp;Humidity;BMP_temperature;BMP_pressure;BME280_temperature;BME280_humidity;BME280_pressure;Samples;Min_cycle;Max_cycle;Signal;HPM_P1;HPM_P2
2023/01/30 00:01:39;;;;;;;21.27;12.70;;;;;;;2.59;92.74;100757.69;5076572;28;20581;-69
2023/01/30 00:04:06;;;;;;;18.83;11.87;;;;;;;2.56;92.96;100721.81;5078557;28;20223;-69
2023/01/30 00:06:32;;;;;;;21.90;12.97;;;;;;;2.60;93.01;100712.06;5075938;28;20209;-69
2023/01/30 00:08:59;;;;;;;18.70;11.47;;;;;;;2.58;92.36;100701.59;5078410;28;20232;-69
2023/01/30 00:11:28;;;;;;;18.27;11.80;;;;;;;2.58;93.11;100698.97;5083135;28;20224;-69
2023/01/30 00:13:55;;;;;;;19.43;12.00;;;;;;;2.60;92.90;100664.75;5074009;28;20205;-70
2023/01/30 00:16:22;;;;;;;20.60;12.43;;;;;;;2.60;92.52;100648.97;5077165;28;20681;-69
2023/01/30 00:18:48;;;;;;;19.70;12.70;;;;;;;2.63;92.57;100631.34;5101954;22;20224;-73
2023/01/30 00:21:15;;;;;;;20.00;11.53;;;;;;;2.63;92.11;100641.84;5069721;28;20197;-73
2023/01/30 00:23:42;;;;;;;17.77;9.57;;;;;;;2.64;92.35;100630.44;5070761;28;20208;-72
2023/01/30 00:26:10;;;;;;;20.10;12.73;;;;;;;2.64;91.64;100640.94;5081888;28;20204;-73
2023/01/30 00:28:38;;;;;;;17.37;11.80;;;;;;;2.66;91.80;100660.16;5082808;28;20223;-73
2023/01/30 00:31:05;;;;;;;19.67;11.87;;;;;;;2.65;91.90;100663.72;5081117;28;20273;-73
2023/01/30 00:33:31;;;;;;;19.60;12.33;;;;;;;2.69;92.04;100675.84;5082979;28;20673;-73
2023/01/30 00:35:58;;;;;;;19.07;12.17;;;;;;;2.68;91.72;100689.06;5082812;28;20203;-73
2023/01/30 00:38:24;;;;;;;21.60;12.00;;;;;;;2.67;92.63;100680.31;5082991;28;20231;-72
2023/01/30 00:40:51;;;;;;;17.87;11.93;;;;;;;2.69;92.18;100683.72;5078155;28;20205;-72
2023/01/30 00:48:56;;;;;;;18.77;11.30;;;;;;;2.73;92.00;100676.59;5084376;28;20235;-73
2023/01/30 00:51:23;;;;;;;20.97;12.70;;;;;;;2.75;91.78;100662.50;5086498;28;20228;-73
2023/01/30 00:53:49;;;;;;;24.47;13.07;;;;;;;2.77;91.61;100644.06;5073369;28;20208;-72
2023/01/30 00:56:16;;;;;;;20.00;12.30;;;;;;;2.77;92.32;100615.97;5079917;28;20203;-73
2023/01/30 00:58:42;;;;;;;24.63;12.67;;;;;;;2.75;92.05;100612.53;5083076;28;20240;-73
2023/01/30 01:01:10;;;;;;;20.50;11.33;;;;;;;2.79;92.82;100594.91;5080204;28;20212;-73
2023/01/30 01:03:36;;;;;;;21.20;12.77;;;;;;;2.76;93.12;100597.63;5080890;28;20212;-72
2023/01/30 01:06:03;;;;;;;19.87;12.60;;;;;;;2.78;92.76;100590.53;5083173;28;20258;-73
2023/01/30 01:08:29;;;;;;;20.27;12.80;;;;;;;2.79;92.79;100581.75;5082901;28;20227;-73
2023/01/30 01:10:56;;;;;;;20.93;12.83;;;;;;;2.82;92.90;100575.53;5084804;28;20560;-73
2023/01/30 01:13:22;;;;;;;20.57;12.37;;;;;;;2.83;93.33;100551.81;5079639;28;20212;-73
2023/01/30 01:15:49;;;;;;;25.00;14.37;;;;;;;2.86;92.74;100535.94;5075251;28;20216;-73
2023/01/30 01:18:17;;;;;;;25.20;13.70;;;;;;;2.86;92.90;100530.69;5080415;28;20228;-74
2023/01/30 01:20:44;;;;;;;22.23;13.27;;;;;;;2.92;93.46;100534.84;5083374;28;20488;-73
2023/01/30 01:23:10;;;;;;;19.33;11.87;;;;;;;2.91;93.76;100557.66;5085354;28;20200;-73
2023/01/30 01:25:37;;;;;;;23.30;14.77;;;;;;;2.93;93.34;100536.56;5089439;28;20201;-74
2023/01/30 01:28:04;;;;;;;23.03;12.90;;;;;;;2.95;93.46;100540.00;5087694;28;20725;-74
2023/01/30 01:30:30;;;;;;;22.57;13.00;;;;;;;2.98;93.56;100550.44;5085065;28;20211;-74
2023/01/30 01:32:57;;;;;;;20.07;11.80;;;;;;;3.02;93.46;100558.19;5085269;28;20971;-74
2023/01/30 01:35:25;;;;;;;22.23;13.00;;;;;;;3.02;93.33;100544.16;5082765;28;20203;-73
2023/01/30 01:37:53;;;;;;;28.57;14.00;;;;;;;3.02;93.53;100546.78;5084656;28;20224;-73
2023/01/30 01:43:16;;;;;;;23.17;14.37;;;;;;;3.04;93.75;100526.56;5084456;28;20445;-74
2023/01/30 01:45:44;;;;;;;20.40;13.23;;;;;;;3.03;95.28;100509.06;5079451;28;20236;-74
2023/01/30 01:48:19;;;;;;;20.40;12.90;;;;;;;3.05;94.99;100509.81;5087437;28;20231;-74
2023/01/30 01:50:51;;;;;;;19.27;10.93;;;;;;;3.06;94.57;100485.25;5089878;28;20228;-72
2023/01/30 01:53:21;;;;;;;19.67;11.97;;;;;;;3.07;94.83;100468.53;5084158;28;20228;-74
2023/01/30 01:55:52;;;;;;;18.40;10.60;;;;;;;3.10;95.67;100463.19;5086985;28;20212;-73
2023/01/30 01:58:25;;;;;;;23.33;13.40;;;;;;;3.08;95.95;100449.22;5075232;28;20227;-74
2023/01/30 02:00:54;;;;;;;22.70;13.13;;;;;;;3.09;96.45;100428.09;5081111;28;20207;-73
2023/01/30 02:03:25;;;;;;;19.93;12.30;;;;;;;3.11;95.93;100415.75;5080376;28;20216;-74
2023/01/30 02:05:57;;;;;;;19.80;12.47;;;;;;;3.10;97.02;100421.06;5083830;28;20287;-72
2023/01/30 02:08:27;;;;;;;21.57;11.67;;;;;;;3.06;97.72;100427.34;5088124;28;20701;-73
2023/01/30 02:10:58;;;;;;;24.90;14.97;;;;;;;3.07;97.96;100444.84;5085322;28;20235;-74
2023/01/30 02:13:25;;;;;;;21.57;13.60;;;;;;;3.06;97.55;100425.59;5087805;28;20216;-73
2023/01/30 02:15:52;;;;;;;19.93;12.40;;;;;;;3.07;98.23;100408.03;5085934;28;20204;-73
2023/01/30 02:18:19;;;;;;;17.97;11.53;;;;;;;3.06;98.99;100420.31;5083896;28;20607;-73
2023/01/30 02:21:06;;;;;;;24.40;14.10;;;;;;;3.06;99.43;100415.06;5087157;28;20200;-72
2023/01/30 02:23:57;;;;;;;20.30;13.53;;;;;;;3.06;99.51;100427.34;5084515;28;20208;-73
2023/01/30 02:26:50;;;;;;;20.60;12.10;;;;;;;3.08;100.00;100415.00;5082591;28;20685;-73
2023/01/30 02:29:46;;;;;;;19.47;11.67;;;;;;;3.13;100.00;100413.06;5073100;28;20231;-73
2023/01/30 02:32:21;;;;;;;20.47;10.43;;;;;;;3.14;100.00;100420.06;5052130;28;20235;-73
2023/01/30 02:34:57;;;;;;;17.53;10.93;;;;;;;3.16;100.00;100423.50;5086060;28;20226;-74
2023/01/30 02:37:36;;;;;;;15.37;9.83;;;;;;;3.17;100.00;100412.06;5081967;28;20208;-73
2023/01/30 02:40:15;;;;;;;18.33;11.43;;;;;;;3.22;100.00;100404.84;5082027;28;20696;-71
2023/01/30 02:42:48;;;;;;;16.50;10.93;;;;;;;3.21;100.00;100391.75;5088485;28;20203;-74
2023/01/30 02:45:22;;;;;;;17.87;10.13;;;;;;;3.25;100.00;100380.19;5086889;28;20700;-74
2023/01/30 02:47:55;;;;;;;15.50;9.97;;;;;;;3.28;100.00;100401.13;5082311;28;20251;-72
2023/01/30 02:50:27;;;;;;;18.10;11.00;;;;;;;3.35;100.00;100374.53;5086845;28;20203;-73
2023/01/30 02:52:54;;;;;;;18.07;11.20;;;;;;;3.37;100.00;100362.16;5081497;28;20232;-72
2023/01/30 02:55:23;;;;;;;17.37;10.83;;;;;;;3.38;99.86;100357.75;5080754;28;20208;-74
2023/01/30 02:57:49;;;;;;;19.50;13.67;;;;;;;3.38;100.00;100361.25;5082204;28;20224;-72
2023/01/30 03:00:22;;;;;;;16.93;10.53;;;;;;;3.39;100.00;100362.97;5083543;28;20612;-73
2023/01/30 03:03:09;;;;;;;18.33;11.07;;;;;;;3.45;99.85;100344.28;5084959;28;20223;-73
2023/01/30 03:06:02;;;;;;;17.03;10.73;;;;;;;3.46;100.00;100322.31;5081824;28;20453;-72
2023/01/30 03:08:34;;;;;;;18.37;11.70;;;;;;;3.44;100.00;100342.56;5077278;28;20224;-73
2023/01/30 03:11:04;;;;;;;18.60;11.30;;;;;;;3.46;100.00;100335.47;5082687;28;20204;-72
2023/01/30 03:13:43;;;;;;;17.87;11.37;;;;;;;3.49;99.95;100331.84;5081343;28;20212;-73
2023/01/30 03:16:15;;;;;;;17.13;11.23;;;;;;;3.50;99.49;100333.56;5081490;28;20209;-73
2023/01/30 03:18:44;;;;;;;20.80;12.17;;;;;;;3.53;99.47;100341.38;5086240;28;20238;-72
2023/01/30 03:21:11;;;;;;;18.47;11.87;;;;;;;3.54;100.00;100329.06;5082782;28;20208;-73
2023/01/30 03:23:38;;;;;;;22.77;12.17;;;;;;;3.55;100.00;100334.25;5081234;28;20204;-73
2023/01/30 03:26:08;;;;;;;17.87;11.47;;;;;;;3.56;100.00;100330.72;5076521;28;20220;-73
2023/01/30 03:28:35;;;;;;;19.13;12.30;;;;;;;3.57;100.00;100326.31;5083516;28;20224;-70
2023/01/30 03:31:01;;;;;;;17.57;11.03;;;;;;;3.60;100.00;100303.31;5077855;28;20663;-73
2023/01/30 03:33:28;;;;;;;17.60;11.43;;;;;;;3.66;100.00;100320.66;5087142;28;20212;-73
2023/01/30 03:35:56;;;;;;;16.80;10.13;;;;;;;3.73;100.00;100315.09;5082262;28;20208;-73
2023/01/30 03:38:22;;;;;;;22.87;13.17;;;;;;;3.77;100.00;100315.78;5086991;28;20227;-73
2023/01/30 03:40:48;;;;;;;20.50;12.77;;;;;;;3.77;100.00;100292.94;5084687;28;20231;-72
2023/01/30 03:43:15;;;;;;;21.17;12.87;;;;;;;3.77;100.00;100290.31;5078278;28;20244;-74
2023/01/30 03:45:41;;;;;;;23.63;13.93;;;;;;;3.79;100.00;100290.25;5075976;28;20205;-73
2023/01/30 03:48:08;;;;;;;24.53;13.57;;;;;;;3.80;100.00;100281.44;5085344;28;20701;-73
2023/01/30 03:50:35;;;;;;;20.43;12.27;;;;;;;3.85;100.00;100276.84;5087986;28;20215;-73
2023/01/30 03:53:03;;;;;;;22.37;13.80;;;;;;;3.86;100.00;100281.19;5084373;28;20243;-73
2023/01/30 03:55:29;;;;;;;19.97;12.67;;;;;;;3.83;100.00;100276.91;5087556;28;20216;-75
2023/01/30 03:57:56;;;;;;;20.20;12.17;;;;;;;3.85;100.00;100287.38;5086233;28;20224;-74
2023/01/30 04:00:23;;;;;;;17.73;11.37;;;;;;;3.82;100.00;100280.47;5079888;28;20237;-73
2023/01/30 04:02:50;;;;;;;18.20;10.43;;;;;;;3.81;100.00;100270.84;5084001;28;20769;-73
2023/01/30 04:05:17;;;;;;;17.13;11.00;;;;;;;3.80;100.00;100268.25;5087048;28;20199;-74
2023/01/30 04:07:43;;;;;;;12.57;8.40;;;;;;;3.81;100.00;100272.63;5082883;28;20873;-73
2023/01/30 04:10:14;;;;;;;15.27;10.00;;;;;;;3.83;100.00;100258.47;5086672;28;20223;-71
2023/01/30 04:12:41;;;;;;;15.07;10.40;;;;;;;3.83;100.00;100255.84;5085518;28;20223;-75
2023/01/30 04:15:08;;;;;;;16.47;10.63;;;;;;;3.86;100.00;100270.66;5081505;28;20204;-73
2023/01/30 04:17:34;;;;;;;15.77;10.33;;;;;;;3.90;100.00;100255.59;5084387;28;20232;-73
2023/01/30 04:20:01;;;;;;;14.20;9.73;;;;;;;3.93;100.00;100256.31;5078434;28;20669;-74
2023/01/30 04:22:27;;;;;;;18.00;10.93;;;;;;;3.93;100.00;100245.78;5082348;28;20200;-75
2023/01/30 04:24:54;;;;;;;19.23;11.77;;;;;;;3.96;100.00;100239.50;5081657;28;20669;-74
2023/01/30 04:27:22;;;;;;;14.83;9.67;;;;;;;4.00;100.00;100244.56;5081971;28;20553;-74
2023/01/30 04:29:48;;;;;;;15.07;9.63;;;;;;;3.95;100.00;100243.06;5084845;28;20620;-72
2023/01/30 04:32:14;;;;;;;13.97;9.20;;;;;;;3.97;100.00;100236.78;5087191;28;20588;-74
2023/01/30 04:34:42;;;;;;;12.20;8.93;;;;;;;3.96;100.00;100235.09;5081133;28;20666;-73
2023/01/30 04:37:09;;;;;;;11.47;8.20;;;;;;;3.97;100.00;100241.22;5084200;28;20620;-74
2023/01/30 04:39:35;;;;;;;14.87;8.97;;;;;;;3.99;100.00;100236.72;5084828;28;20204;-73
2023/01/30 04:42:02;;;;;;;9.97;7.80;;;;;;;3.99;100.00;100229.69;5082551;28;20203;-74
2023/01/30 04:44:29;;;;;;;13.93;7.83;;;;;;;4.00;100.00;100226.13;5082945;28;20216;-73
2023/01/30 04:46:56;;;;;;;10.87;7.23;;;;;;;4.01;100.00;100227.00;5078925;28;20205;-74
2023/01/30 04:49:22;;;;;;;9.83;6.73;;;;;;;4.03;100.00;100222.50;5081117;28;20216;-71
2023/01/30 04:51:49;;;;;;;9.57;6.77;;;;;;;4.02;100.00;100226.94;5090526;28;20239;-72
2023/01/30 04:54:15;;;;;;;10.40;6.83;;;;;;;4.02;100.00;100221.66;5087316;28;20201;-74
2023/01/30 04:56:42;;;;;;;9.77;7.00;;;;;;;4.05;100.00;100211.00;5084222;28;20208;-74
2023/01/30 04:59:08;;;;;;;10.13;6.57;;;;;;;4.07;100.00;100208.28;5090645;28;20228;-73
2023/01/30 05:01:38;;;;;;;8.60;6.30;;;;;;;4.08;100.00;100200.31;5075807;28;20592;-74
2023/01/30 05:04:05;;;;;;;7.90;6.23;;;;;;;4.10;100.00;100193.22;5077615;28;20197;-74
2023/01/30 05:06:32;;;;;;;8.50;6.43;;;;;;;4.11;100.00;100204.59;5081738;28;20211;-73
2023/01/30 05:08:59;;;;;;;8.60;6.77;;;;;;;4.12;100.00;100201.88;5082875;28;20733;-74
2023/01/30 05:11:27;;;;;;;9.40;6.50;;;;;;;4.15;100.00;100200.88;5085502;28;20552;-72
2023/01/30 05:13:54;;;;;;;9.10;6.73;;;;;;;4.15;100.00;100204.38;5087450;28;20200;-72
2023/01/30 05:16:22;;;;;;;9.57;6.60;;;;;;;4.15;100.00;100180.66;5084404;28;20215;-72
2023/01/30 05:18:51;;;;;;;8.40;6.63;;;;;;;4.19;100.00;100190.16;5077275;28;20918;-73
2023/01/30 05:21:20;;;;;;;8.03;6.17;;;;;;;4.22;100.00;100190.94;5081776;28;20670;-75
2023/01/30 05:23:46;;;;;;;8.80;7.17;;;;;;;4.23;100.00;100185.59;5080007;28;20232;-71
2023/01/30 05:26:13;;;;;;;13.37;8.10;;;;;;;4.23;100.00;100188.25;5079115;28;20208;-72
2023/01/30 05:28:40;;;;;;;8.33;5.10;;;;;;;4.21;100.00;100176.03;5080218;28;20326;-73
2023/01/30 05:31:09;;;;;;;9.30;7.57;;;;;;;4.24;100.00;100179.41;5082175;28;20268;-71
2023/01/30 05:33:36;;;;;;;9.03;7.00;;;;;;;4.24;100.00;100166.22;5077712;28;20224;-74
2023/01/30 05:36:04;;;;;;;10.23;6.47;;;;;;;4.25;100.00;100165.31;5081055;28;20205;-73
2023/01/30 05:38:30;;;;;;;9.07;6.70;;;;;;;4.27;100.00;100181.06;5084660;28;21148;-76
2023/01/30 05:41:01;;;;;;;7.70;6.00;;;;;;;4.33;100.00;100180.75;5090307;28;20227;-73
2023/01/30 05:43:27;;;;;;;8.40;6.77;;;;;;;4.37;100.00;100169.16;5081832;28;20627;-71
2023/01/30 05:45:55;;;;;;;8.03;6.27;;;;;;;4.37;100.00;100174.44;5080244;28;20658;-72
2023/01/30 05:48:21;;;;;;;8.37;6.43;;;;;;;4.39;100.00;100186.63;5080129;28;20231;-73
2023/01/30 05:50:50;;;;;;;9.10;7.03;;;;;;;4.40;100.00;100183.06;5078163;28;20226;-73
2023/01/30 05:53:18;;;;;;;8.00;5.40;;;;;;;4.43;100.00;100197.88;5077934;28;20220;-73
2023/01/30 05:55:44;;;;;;;10.97;7.00;;;;;;;4.41;100.00;100199.75;5085272;28;20208;-75
2023/01/30 05:58:11;;;;;;;7.10;5.70;;;;;;;4.42;100.00;100204.09;5086210;28;20737;-73
2023/01/30 06:00:37;;;;;;;8.00;5.47;;;;;;;4.42;100.00;100204.94;5084273;28;20201;-74
2023/01/30 06:03:04;;;;;;;7.30;5.83;;;;;;;4.46;100.00;100195.13;5081896;28;20196;-74
2023/01/30 06:05:30;;;;;;;7.07;5.60;;;;;;;4.46;100.00;100209.16;5089014;28;20395;-74
2023/01/30 06:07:57;;;;;;;8.43;5.60;;;;;;;4.47;100.00;100197.69;5083785;28;20225;-74
2023/01/30 06:10:25;;;;;;;9.03;6.53;;;;;;;4.48;100.00;100203.78;5087784;28;20215;-74
2023/01/30 06:12:51;;;;;;;9.83;6.37;;;;;;;4.48;100.00;100211.69;5083434;28;20228;-74
2023/01/30 06:15:17;;;;;;;8.23;6.00;;;;;;;4.49;100.00;100206.34;5086645;28;20208;-74
2023/01/30 06:20:14;;;;;;;8.33;5.93;;;;;;;4.49;100.00;100197.59;5099157;28;20209;-74
2023/01/30 06:22:40;;;;;;;8.73;6.30;;;;;;;4.50;100.00;100194.03;5106718;28;20680;-74
2023/01/30 06:25:08;;;;;;;7.30;5.27;;;;;;;4.50;100.00;100189.63;5108813;28;20661;-73
2023/01/30 06:27:36;;;;;;;5.73;4.97;;;;;;;4.49;100.00;100194.94;5107617;28;20207;-74
2023/01/30 06:30:03;;;;;;;6.27;5.20;;;;;;;4.52;100.00;100184.28;5086897;28;20224;-74
2023/01/30 06:32:29;;;;;;;8.60;5.60;;;;;;;4.50;100.00;100176.44;5078605;28;20282;-73
2023/01/30 06:34:55;;;;;;;9.70;6.00;;;;;;;4.49;100.00;100180.00;5078389;28;20219;-73
2023/01/30 06:37:22;;;;;;;9.20;5.90;;;;;;;4.50;100.00;100181.69;5076449;28;20205;-73
2023/01/30 06:39:48;;;;;;;7.37;5.90;;;;;;;4.50;100.00;100178.22;5090902;28;20728;-71
2023/01/30 06:42:15;;;;;;;7.87;5.37;;;;;;;4.49;100.00;100190.53;5076924;28;20211;-73
2023/01/30 06:44:42;;;;;;;7.07;4.97;;;;;;;4.52;100.00;100179.00;5088488;28;20208;-74
2023/01/30 06:47:09;;;;;;;7.10;4.40;;;;;;;4.55;100.00;100189.41;5085837;28;20212;-73
2023/01/30 06:49:35;;;;;;;6.90;3.93;;;;;;;4.59;100.00;100190.97;5086266;28;20224;-72
2023/01/30 06:52:02;;;;;;;5.37;3.00;;;;;;;4.59;100.00;100205.97;5081838;28;20204;-73
2023/01/30 06:54:29;;;;;;;4.90;2.97;;;;;;;4.64;100.00;100209.25;5074710;28;20466;-71
2023/01/30 06:56:55;;;;;;;5.33;2.33;;;;;;;4.67;100.00;100217.00;5076158;28;20208;-72
2023/01/30 06:59:22;;;;;;;4.07;1.90;;;;;;;4.70;100.00;100230.91;5082991;28;20425;-73
2023/01/30 07:01:49;;;;;;;3.53;1.90;;;;;;;4.72;100.00;100212.38;5089882;28;20203;-72
2023/01/30 07:04:16;;;;;;;2.93;1.80;;;;;;;4.73;100.00;100217.56;5085935;28;20202;-73
2023/01/30 07:06:42;;;;;;;3.83;2.23;;;;;;;4.74;100.00;100214.00;5086727;28;20200;-73
2023/01/30 07:09:09;;;;;;;3.63;2.80;;;;;;;4.73;100.00;100220.22;5086806;28;20223;-73
2023/01/30 07:11:35;;;;;;;4.30;2.90;;;;;;;4.74;100.00;100211.38;5091369;28;20199;-73
2023/01/30 07:14:02;;;;;;;6.20;2.97;;;;;;;4.77;100.00;100218.28;5083581;28;20224;-72
2023/01/30 07:16:29;;;;;;;5.07;3.03;;;;;;;4.74;100.00;100215.78;5084099;28;20586;-73
2023/01/30 07:18:57;;;;;;;5.43;2.67;;;;;;;4.73;100.00;100207.03;5082133;28;20243;-72
2023/01/30 07:21:24;;;;;;;5.57;3.00;;;;;;;4.75;100.00;100214.88;5083685;28;20216;-71
2023/01/30 07:23:50;;;;;;;6.30;2.73;;;;;;;4.75;100.00;100221.00;5076677;28;20196;-72
2023/01/30 07:26:17;;;;;;;5.73;2.77;;;;;;;4.74;100.00;100219.28;5080037;28;20211;-73
2023/01/30 07:28:43;;;;;;;5.67;1.93;;;;;;;4.73;100.00;100222.84;5077380;28;20224;-72
2023/01/30 07:31:10;;;;;;;8.90;3.30;;;;;;;4.69;100.00;100226.53;5073792;28;20207;-73
2023/01/30 07:33:36;;;;;;;9.23;3.20;;;;;;;4.67;100.00;100215.22;5086409;28;20227;-73
2023/01/30 07:36:04;;;;;;;6.03;2.20;;;;;;;4.70;100.00;100209.78;5076280;28;20212;-71
2023/01/30 07:38:31;;;;;;;7.80;2.43;;;;;;;4.72;100.00;100218.50;5083704;28;20224;-73
2023/01/30 07:40:57;;;;;;;7.00;2.40;;;;;;;4.73;100.00;100217.56;5075626;28;20201;-72
2023/01/30 07:43:24;;;;;;;6.57;2.23;;;;;;;4.74;100.00;100218.44;5078400;28;20212;-74
2023/01/30 07:45:50;;;;;;;10.33;2.60;;;;;;;4.71;100.00;100222.06;5084448;28;20216;-74
2023/01/30 07:48:18;;;;;;;6.70;2.37;;;;;;;4.71;99.42;100219.44;5080283;28;20483;-73
2023/01/30 07:50:45;;;;;;;7.73;2.10;;;;;;;4.73;99.58;100222.84;5091953;28;20203;-73
2023/01/30 07:53:15;;;;;;;7.23;2.20;;;;;;;4.73;98.96;100217.56;5081628;28;20231;-73
2023/01/30 07:55:41;;;;;;;5.33;2.17;;;;;;;4.75;98.33;100222.78;5079659;28;20212;-73
2023/01/30 07:58:12;;;;;;;6.03;2.10;;;;;;;4.74;98.08;100214.00;5083580;28;20740;-72
2023/01/30 08:00:38;;;;;;;5.57;2.37;;;;;;;4.77;98.01;100218.28;5084518;28;20203;-73
2023/01/30 08:03:05;;;;;;;4.77;2.53;;;;;;;4.77;97.95;100210.38;5088722;28;20200;-73
2023/01/30 08:05:31;;;;;;;8.97;2.40;;;;;;;4.77;97.49;100211.25;5081829;28;20609;-73
2023/01/30 08:07:59;;;;;;;7.33;2.63;;;;;;;4.77;97.24;100208.59;5078435;28;20872;-72
2023/01/30 08:10:27;;;;;;;9.30;2.23;;;;;;;4.81;96.97;100204.91;5078022;28;20238;-71
2023/01/30 08:12:53;;;;;;;5.77;2.17;;;;;;;4.83;97.21;100210.97;5085935;28;20235;-73
2023/01/30 08:15:20;;;;;;;6.50;2.37;;;;;;;4.87;96.61;100209.00;5080226;28;20219;-72
2023/01/30 08:17:53;;;;;;;8.73;2.17;;;;;;;4.91;96.36;100207.09;5078226;28;20208;-73
2023/01/30 08:20:20;;;;;;;5.57;1.90;;;;;;;4.91;96.02;100207.09;5080576;28;20204;-72
2023/01/30 08:22:46;;;;;;;8.83;2.10;;;;;;;4.92;95.96;100211.44;5081392;28;20503;-72
2023/01/30 08:25:13;;;;;;;6.90;1.87;;;;;;;4.98;95.41;100208.53;5080828;28;20208;-73
2023/01/30 08:27:40;;;;;;;11.90;2.40;;;;;;;5.00;94.94;100220.72;5079372;28;20212;-73
2023/01/30 08:30:08;;;;;;;4.80;1.97;;;;;;;5.03;94.68;100231.09;5085839;28;20211;-72
2023/01/30 08:32:35;;;;;;;7.93;1.97;;;;;;;5.06;94.15;100232.75;5081624;28;20571;-73
2023/01/30 08:35:01;;;;;;;9.23;2.00;;;;;;;5.09;94.05;100238.75;5086745;28;20211;-73
2023/01/30 08:37:28;;;;;;;7.83;1.90;;;;;;;5.12;93.51;100243.88;5079342;28;20216;-73
2023/01/30 08:39:54;;;;;;;12.80;2.67;;;;;;;5.12;92.92;100246.53;5085974;28;20649;-72
2023/01/30 08:42:21;;;;;;;10.93;2.17;;;;;;;5.14;92.71;100249.97;5080538;28;20205;-72
2023/01/30 08:44:49;;;;;;;12.43;2.60;;;;;;;5.16;92.37;100248.09;5082221;28;20654;-72
2023/01/30 08:47:15;;;;;;;8.87;2.13;;;;;;;5.16;91.38;100242.81;5091319;28;20215;-72
2023/01/30 08:49:41;;;;;;;12.13;2.30;;;;;;;5.16;90.99;100236.69;5083566;28;20229;-72
2023/01/30 08:52:08;;;;;;;9.23;1.67;;;;;;;5.14;89.99;100242.03;5081253;28;20654;-73
2023/01/30 08:54:34;;;;;;;8.03;1.90;;;;;;;5.14;89.54;100244.69;5087568;28;20602;-72
2023/01/30 08:57:01;;;;;;;8.43;2.83;;;;;;;5.16;89.15;100236.69;5090536;28;20235;-71
2023/01/30 08:59:27;;;;;;;7.73;2.10;;;;;;;5.20;88.75;100254.06;5083613;28;20706;-73
2023/01/30 09:01:55;;;;;;;7.67;1.80;;;;;;;5.20;88.39;100254.91;5087996;28;20219;-73
2023/01/30 09:04:23;;;;;;;12.43;2.20;;;;;;;5.19;87.97;100255.88;5084781;28;20209;-72
2023/01/30 09:06:50;;;;;;;10.27;1.90;;;;;;;5.21;87.55;100253.13;5081517;28;20666;-73
2023/01/30 09:09:16;;;;;;;7.07;1.80;;;;;;;5.23;87.25;100246.84;5080698;28;20391;-73
2023/01/30 09:11:43;;;;;;;8.07;1.80;;;;;;;5.21;86.30;100250.50;5084518;28;20196;-72
2023/01/30 09:14:09;;;;;;;8.07;2.47;;;;;;;5.21;85.85;100258.41;5088701;28;20270;-72
2023/01/30 09:16:36;;;;;;;8.13;2.43;;;;;;;5.28;85.74;100264.28;5082918;28;20215;-73
2023/01/30 09:19:03;;;;;;;9.30;2.00;;;;;;;5.29;84.78;100240.44;5075112;28;20232;-72
2023/01/30 09:21:30;;;;;;;13.37;2.80;;;;;;;5.30;84.96;100252.72;5089710;28;20204;-72
2023/01/30 09:23:57;;;;;;;13.33;2.40;;;;;;;5.34;84.51;100253.44;5093299;28;20225;-71
2023/01/30 09:26:24;;;;;;;14.07;2.63;;;;;;;5.38;84.08;100245.25;5089146;28;20216;-70
2023/01/30 09:28:50;;;;;;;14.37;3.27;;;;;;;5.41;83.87;100246.91;5079068;28;20307;-72
2023/01/30 09:31:16;;;;;;;10.10;2.87;;;;;;;5.44;83.50;100239.69;5081272;28;20224;-72
2023/01/30 09:33:43;;;;;;;7.70;1.77;;;;;;;5.46;83.48;100261.59;5081173;28;20239;-73
2023/01/30 09:36:11;;;;;;;12.10;2.30;;;;;;;5.45;82.95;100254.63;5090073;28;20583;-72
2023/01/30 09:38:37;;;;;;;11.17;2.20;;;;;;;5.49;82.60;100256.19;5077955;28;20220;-72
2023/01/30 09:41:24;;;;;;;8.63;2.37;;;;;;;5.49;82.06;100261.47;5081897;28;20204;-73
2023/01/30 09:44:04;;;;;;;10.43;2.87;;;;;;;5.50;81.57;100259.69;5086801;28;20215;-73
2023/01/30 09:46:42;;;;;;;10.17;2.40;;;;;;;5.49;81.01;100256.19;5085433;28;20208;-73
2023/01/30 09:49:22;;;;;;;6.60;2.70;;;;;;;5.53;81.01;100251.63;5090161;28;20219;-72
2023/01/30 09:52:03;;;;;;;8.80;2.40;;;;;;;5.55;80.87;100263.78;5075862;28;20701;-73
2023/01/30 09:54:34;;;;;;;10.07;2.63;;;;;;;5.58;80.24;100254.84;5075035;28;20228;-73
2023/01/30 09:57:11;;;;;;;11.63;2.53;;;;;;;5.59;79.12;100249.50;5071025;28;20205;-71
2023/01/30 09:59:47;;;;;;;9.53;2.00;;;;;;;5.63;79.40;100259.94;5086777;28;20223;-72
2023/01/30 10:02:31;;;;;;;12.47;1.80;;;;;;;5.66;79.32;100259.78;5084743;28;20208;-73
2023/01/30 10:04:58;;;;;;;11.80;2.23;;;;;;;5.71;79.24;100248.06;5077731;28;20204;-72
2023/01/30 10:07:37;;;;;;;11.27;1.87;;;;;;;5.72;79.25;100262.13;5081298;28;20302;-72
2023/01/30 10:10:12;;;;;;;16.47;2.83;;;;;;;5.75;78.87;100252.25;5081788;28;20231;-72
2023/01/30 10:12:50;;;;;;;10.70;2.47;;;;;;;5.76;78.77;100255.75;5083860;28;20203;-72
2023/01/30 10:15:28;;;;;;;13.60;2.53;;;;;;;5.78;78.94;100261.81;5083056;28;20575;-74
2023/01/30 10:18:16;;;;;;;10.87;2.27;;;;;;;5.78;78.74;100259.16;5079005;28;20211;-72
2023/01/30 10:20:52;;;;;;;7.90;2.27;;;;;;;5.79;78.98;100259.09;5085290;28;20211;-73
2023/01/30 10:23:43;;;;;;;12.47;2.57;;;;;;;5.77;78.41;100279.44;5083970;28;20211;-75
2023/01/30 10:26:13;;;;;;;12.17;2.30;;;;;;;5.73;78.16;100246.16;5074847;28;20641;-73
2023/01/30 10:28:44;;;;;;;8.93;2.07;;;;;;;5.69;78.63;100238.50;5076701;28;20229;-73
2023/01/30 10:31:14;;;;;;;10.33;2.33;;;;;;;5.65;78.72;100252.78;5092300;28;20208;-73
2023/01/30 10:33:44;;;;;;;9.47;2.53;;;;;;;5.67;78.65;100259.72;5082736;28;20219;-71
2023/01/30 10:36:14;;;;;;;11.90;2.00;;;;;;;5.70;78.92;100254.28;5083184;28;20213;-73
2023/01/30 10:38:45;;;;;;;11.57;2.30;;;;;;;5.69;78.50;100244.63;5088857;28;20227;-73
2023/01/30 10:41:20;;;;;;;15.23;2.47;;;;;;;5.73;78.80;100235.59;5081359;28;20211;-72
2023/01/30 10:43:56;;;;;;;5.67;1.40;;;;;;;5.73;78.54;100232.97;5080276;28;20697;-72
2023/01/30 10:46:41;;;;;;;9.67;2.03;;;;;;;5.70;77.55;100222.56;5085457;28;20207;-70
2023/01/30 10:49:15;;;;;;;9.30;2.40;;;;;;;5.72;77.54;100225.13;5081513;28;20228;-71
2023/01/30 10:51:49;;;;;;;8.07;1.80;;;;;;;5.78;77.52;100228.31;5080574;28;20235;-71
2023/01/30 10:54:24;;;;;;;12.20;2.77;;;;;;;5.87;77.44;100221.72;5082671;28;20706;-70
2023/01/30 10:56:56;;;;;;;8.73;1.90;;;;;;;5.93;77.19;100208.19;5083903;28;20211;-71
2023/01/30 10:59:29;;;;;;;8.23;2.07;;;;;;;5.98;76.53;100203.53;5077826;28;20215;-71
2023/01/30 11:02:03;;;;;;;9.43;2.03;;;;;;;6.00;76.23;100219.31;5084983;28;20554;-71
2023/01/30 11:04:37;;;;;;;8.10;1.60;;;;;;;6.02;76.58;100220.09;5084619;28;20261;-70
2023/01/30 11:07:04;;;;;;;12.67;1.77;;;;;;;6.01;76.67;100227.19;5084294;28;20199;-71
2023/01/30 11:09:40;;;;;;;11.27;2.50;;;;;;;6.01;77.57;100232.47;5086092;28;20228;-71
2023/01/30 11:12:06;;;;;;;8.27;1.60;;;;;;;6.01;78.48;100224.53;5083602;28;20201;-71
2023/01/30 11:14:52;;;;;;;7.83;1.67;;;;;;;6.01;79.08;100226.31;5086935;28;20224;-70
2023/01/30 11:17:19;;;;;;;14.00;2.07;;;;;;;5.99;80.04;100228.19;5078615;28;20212;-71
2023/01/30 11:19:54;;;;;;;8.43;1.50;;;;;;;5.99;80.05;100231.69;5080886;28;20390;-71
2023/01/30 11:22:21;;;;;;;13.67;2.63;;;;;;;5.99;80.16;100234.34;5085533;28;20703;-72
2023/01/30 11:24:49;;;;;;;11.70;2.87;;;;;;;5.99;80.12;100221.13;5083794;28;20200;-70
2023/01/30 11:27:18;;;;;;;8.13;2.20;;;;;;;5.99;80.12;100215.81;5085012;28;20216;-71
2023/01/30 11:29:45;;;;;;;6.80;1.87;;;;;;;6.01;80.52;100213.97;5084688;28;20228;-73
2023/01/30 11:32:15;;;;;;;6.57;1.60;;;;;;;6.06;80.12;100196.09;5081039;28;20268;-72
2023/01/30 11:34:43;;;;;;;9.23;1.53;;;;;;;6.13;80.01;100207.19;5085913;28;20665;-70
2023/01/30 11:37:18;;;;;;;12.30;2.07;;;;;;;6.19;79.81;100207.72;5086300;28;20200;-71
2023/01/30 11:39:52;;;;;;;9.60;1.60;;;;;;;6.25;79.29;100223.28;5086020;28;20219;-70
2023/01/30 11:42:20;;;;;;;10.80;1.73;;;;;;;6.22;77.24;100210.22;5086058;28;20200;-70